Time;durP1;ratioP1;P1;durP2;ratioP2;P2;SDS_P1;SDS_P2;PMS_P1;PMS_P2;Temp;Humidity;BMP_temperature;BMP_pressure;BME280_temperature;BME280_humidity;BME280_pressure;Samples;Min_cycle;Max_cycle;Signal;HPM_P1;HPM_P2
2022/07/19 00:02:58;;;;;;;4.95;2.20;;;;;;;14.20;80.89;100627.69;1735650;82;21196;-81
2022/07/19 00:06:03;;;;;;;4.03;2.60;;;;;;;14.17;81.03;100628.09;1735256;81;21243;-79
2022/07/19 00:09:09;;;;;;;3.87;2.10;;;;;;;14.13;81.16;100624.01;1736152;82;21750;-79
2022/07/19 00:12:16;;;;;;;9.50;2.60;;;;;;;14.12;81.36;100633.31;1736200;82;21196;-79
2022/07/19 00:15:22;;;;;;;6.05;2.42;;;;;;;14.10;81.50;100632.11;1735843;81;21203;-79
2022/07/19 00:18:29;;;;;;;2.95;2.30;;;;;;;14.06;81.57;100629.41;1734832;82;21236;-80
2022/07/19 00:21:34;;;;;;;2.60;2.08;;;;;;;14.02;81.68;100630.83;1734876;81;21192;-79
2022/07/19 00:24:40;;;;;;;8.03;2.67;;;;;;;13.96;81.97;100632.45;1736259;81;21173;-80
2022/07/19 00:27:46;;;;;;;9.08;2.52;;;;;;;13.91;82.34;100636.30;1736429;82;21172;-80
2022/07/19 00:30:51;;;;;;;4.95;2.33;;;;;;;13.86;82.68;100631.89;1736281;81;21717;-80
2022/07/19 00:33:57;;;;;;;11.90;2.70;;;;;;;13.81;83.03;100631.61;1734613;82;21223;-79
2022/07/19 00:37:03;;;;;;;9.33;2.55;;;;;;;13.78;83.55;100626.48;1736261;82;21200;-80
2022/07/19 00:40:09;;;;;;;6.40;2.45;;;;;;;13.77;83.88;100628.91;1733006;81;21247;-79
2022/07/19 00:43:16;;;;;;;3.85;2.42;;;;;;;13.75;84.14;100622.23;1733403;83;21212;-79
2022/07/19 00:46:27;;;;;;;6.95;2.65;;;;;;;13.75;84.36;100621.38;1732308;81;21192;-79
2022/07/19 00:49:32;;;;;;;3.83;2.37;;;;;;;13.74;84.59;100623.28;1733201;81;21768;-80
2022/07/19 00:52:39;;;;;;;7.92;2.60;;;;;;;13.74;84.91;100619.68;1732137;83;21173;-80
2022/07/19 00:55:45;;;;;;;3.83;2.45;;;;;;;13.73;85.03;100616.58;1718451;82;21244;-79
2022/07/19 00:58:52;;;;;;;6.65;2.90;;;;;;;13.73;85.13;100626.20;1733416;83;21157;-79
2022/07/19 01:01:57;;;;;;;4.20;2.33;;;;;;;13.71;85.25;100620.05;1732635;83;21792;-79
2022/07/19 01:05:02;;;;;;;3.60;2.25;;;;;;;13.69;85.25;100623.00;1733068;81;21871;-79
2022/07/19 01:08:08;;;;;;;5.17;2.45;;;;;;;13.69;85.27;100623.48;1733297;83;21141;-80
2022/07/19 01:11:14;;;;;;;4.25;2.40;;;;;;;13.68;85.27;100622.64;1732387;81;21184;-79
2022/07/19 01:14:18;;;;;;;6.87;2.72;;;;;;;13.66;85.35;100624.73;1733401;83;21211;-79
2022/07/19 01:17:24;;;;;;;3.70;2.42;;;;;;;13.62;85.42;100632.17;1733389;83;21145;-80
2022/07/19 01:20:29;;;;;;;7.80;2.70;;;;;;;13.57;85.53;100624.49;1732833;81;21236;-79
2022/07/19 01:23:35;;;;;;;9.70;2.70;;;;;;;13.54;85.83;100627.08;1732095;83;21724;-79
2022/07/19 01:26:42;;;;;;;5.45;3.25;;;;;;;13.50;86.06;100634.02;1732056;81;21440;-79
2022/07/19 01:29:48;;;;;;;12.35;3.00;;;;;;;13.47;86.30;100630.78;1733295;81;21773;-80
2022/07/19 01:32:54;;;;;;;5.60;2.65;;;;;;;13.44;86.53;100636.64;1732178;83;21192;-79
2022/07/19 01:36:01;;;;;;;6.65;2.37;;;;;;;13.38;86.69;100635.51;1732490;81;21220;-80
2022/07/19 01:39:09;;;;;;;5.12;2.80;;;;;;;13.33;86.96;100633.84;1733050;81;21204;-79
2022/07/19 01:42:16;;;;;;;6.78;3.35;;;;;;;13.29;87.21;100636.63;1732631;83;21208;-79
2022/07/19 01:45:22;;;;;;;4.97;3.02;;;;;;;13.26;87.38;100636.98;1732852;81;21259;-79
2022/07/19 01:48:29;;;;;;;4.22;2.77;;;;;;;13.24;87.55;100637.70;1733148;83;21180;-79
2022/07/19 01:51:34;;;;;;;5.65;2.80;;;;;;;13.23;87.68;100637.37;1733421;81;21200;-79
2022/07/19 01:54:40;;;;;;;4.20;2.47;;;;;;;13.24;87.79;100637.70;1733252;81;21172;-79
2022/07/19 01:57:46;;;;;;;10.03;3.25;;;;;;;13.25;87.96;100638.03;1731999;83;21785;-79
2022/07/19 02:00:46;;;;;;;8.85;2.98;;;;;;;13.26;88.11;100638.36;1732710;81;21243;-79
2022/07/19 02:03:52;;;;;;;7.45;2.75;;;;;;;13.27;88.15;100640.94;1733157;83;21245;-79
2022/07/19 02:06:58;;;;;;;5.20;2.92;;;;;;;13.29;88.25;100643.48;1733352;83;21781;-80
2022/07/19 02:10:05;;;;;;;13.05;3.30;;;;;;;13.28;88.24;100647.28;1733098;81;21239;-79
2022/07/19 02:13:12;;;;;;;6.78;2.52;;;;;;;13.30;88.13;100647.94;1732371;83;21152;-79
2022/07/19 02:16:17;;;;;;;9.03;3.10;;;;;;;13.32;88.00;100647.25;1732299;81;21761;-79
2022/07/19 02:19:24;;;;;;;4.80;2.87;;;;;;;13.35;87.68;100645.48;1732836;81;21247;-79
2022/07/19 02:22:29;;;;;;;6.85;2.70;;;;;;;13.39;87.34;100648.20;1732842;83;21196;-79
2022/07/19 02:25:29;;;;;;;9.28;3.05;;;;;;;13.48;87.11;100649.83;1733173;81;21200;-79
2022/07/19 02:28:35;;;;;;;8.48;3.08;;;;;;;13.75;86.84;100647.50;1733330;83;21168;-79
2022/07/19 02:31:34;;;;;;;7.70;2.92;;;;;;;14.19;85.82;100654.87;1732311;81;21744;-79
2022/07/19 02:34:40;;;;;;;5.50;3.22;;;;;;;14.67;84.14;100653.89;1732870;81;21200;-79
2022/07/19 02:37:48;;;;;;;6.08;3.20;;;;;;;15.12;82.88;100650.45;1733465;83;21796;-79
2022/07/19 02:40:54;;;;;;;6.75;3.33;;;;;;;15.58;81.52;100653.06;1732964;81;21191;-80
2022/07/19 02:44:00;;;;;;;9.18;3.55;;;;;;;16.08;79.73;100663.48;1731950;83;21204;-80
2022/07/19 02:47:08;;;;;;;8.05;4.35;;;;;;;16.52;77.44;100662.22;1732850;83;21232;-80
2022/07/19 02:50:15;;;;;;;9.63;4.28;;;;;;;16.89;75.67;100664.17;1732599;81;21173;-79
2022/07/19 02:53:21;;;;;;;11.12;4.05;;;;;;;17.23;73.91;100674.22;1732555;83;21220;-80
2022/07/19 02:56:27;;;;;;;12.50;4.60;;;;;;;17.55;72.48;100666.12;1732187;81;21231;-79
2022/07/19 02:59:33;;;;;;;8.93;3.90;;;;;;;17.90;70.74;100670.92;1733305;81;21175;-80
2022/07/19 03:02:39;;;;;;;11.97;3.77;;;;;;;18.19;69.12;100679.79;1733216;83;21249;-80
2022/07/19 03:05:44;;;;;;;6.47;3.77;;;;;;;18.40;68.20;100672.59;1732434;81;21160;-80
2022/07/19 03:08:52;;;;;;;8.53;3.90;;;;;;;18.64;66.49;100677.92;1733227;83;21736;-80
2022/07/19 03:11:58;;;;;;;8.00;3.33;;;;;;;18.71;66.00;100677.37;1733328;83;21232;-80
2022/07/19 03:15:05;;;;;;;7.03;3.20;;;;;;;18.82;65.46;100685.02;1733030;81;21243;-79
2022/07/19 03:18:12;;;;;;;6.37;3.05;;;;;;;18.91;64.63;100685.58;1733236;83;21165;-78
2022/07/19 03:21:18;;;;;;;6.70;2.55;;;;;;;18.92;64.31;100681.76;1733190;81;21172;-79
2022/07/19 03:24:24;;;;;;;10.50;3.15;;;;;;;18.95;64.05;100684.06;1732146;81;21200;-80
2022/07/19 03:27:30;;;;;;;8.63;3.02;;;;;;;18.99;63.71;100686.70;1733296;83;21492;-80
2022/07/19 03:30:35;;;;;;;8.55;2.90;;;;;;;19.04;63.56;100692.43;1732651;81;21188;-80
2022/07/19 03:33:41;;;;;;;6.47;2.87;;;;;;;19.18;63.32;100685.42;1732866;83;21231;-80
2022/07/19 03:36:47;;;;;;;5.37;2.60;;;;;;;19.36;62.93;100689.13;1733043;81;21191;-81
2022/07/19 03:39:52;;;;;;;6.67;2.87;;;;;;;19.61;62.28;100691.94;1733363;81;21211;-81
2022/07/19 03:42:59;;;;;;;20.82;4.47;;;;;;;19.82;61.42;100696.79;1734495;82;21211;-80
2022/07/19 03:46:04;;;;;;;14.80;2.30;;;;;;;20.05;60.47;100707.25;1736312;81;21764;-80
2022/07/19 03:49:11;;;;;;;9.85;2.25;;;;;;;20.20;59.96;100711.05;1736296;82;21172;-80
2022/07/19 03:52:16;;;;;;;5.15;2.05;;;;;;;20.29;59.29;100710.51;1736271;82;21625;-80
2022/07/19 03:55:21;;;;;;;10.25;2.37;;;;;;;20.31;58.59;100714.44;1736319;81;21809;-80
2022/07/19 03:58:27;;;;;;;6.65;2.10;;;;;;;20.26;59.00;100716.52;1736395;82;21649;-80
2022/07/19 04:01:26;;;;;;;4.78;1.70;;;;;;;20.31;58.85;100718.06;1736163;81;21227;-81
2022/07/19 04:04:31;;;;;;;2.85;1.70;;;;;;;20.36;58.49;100718.75;1735368;81;21286;-81
2022/07/19 04:07:38;;;;;;;3.12;1.65;;;;;;;20.38;57.89;100718.84;1734726;82;21732;-81
2022/07/19 04:10:44;;;;;;;3.15;1.70;;;;;;;20.37;57.99;100719.06;1734869;81;21211;-81
2022/07/19 04:13:52;;;;;;;3.83;1.75;;;;;;;20.34;58.16;100719.54;1734966;82;21729;-80
2022/07/19 04:16:58;;;;;;;2.27;1.60;;;;;;;20.34;58.30;100729.27;1734815;82;21546;-81
2022/07/19 04:20:04;;;;;;;4.20;1.67;;;;;;;20.25;58.58;100731.48;1736030;81;21247;-81
2022/07/19 04:23:09;;;;;;;2.35;1.27;;;;;;;20.25;58.77;100730.64;1736273;82;21180;-79
2022/07/19 04:26:14;;;;;;;1.70;1.10;;;;;;;20.28;58.91;100725.99;1735267;81;21207;-80
2022/07/19 04:29:19;;;;;;;6.12;1.30;;;;;;;20.36;59.21;100725.70;1736235;82;21240;-79
2022/07/19 04:32:26;;;;;;;4.85;1.30;;;;;;;20.45;59.00;100732.66;1736192;82;21172;-80
2022/07/19 04:35:32;;;;;;;2.47;1.12;;;;;;;20.48;58.19;100731.39;1734996;81;21214;-80
2022/07/19 04:38:39;;;;;;;3.75;1.30;;;;;;;20.48;57.80;100728.06;1736231;82;21176;-80
2022/07/19 04:41:45;;;;;;;5.33;1.10;;;;;;;20.51;57.69;100733.14;1734945;81;21254;-80
2022/07/19 04:44:51;;;;;;;2.92;1.32;;;;;;;20.57;57.35;100731.39;1735243;81;21231;-80
2022/07/19 04:47:57;;;;;;;2.30;1.40;;;;;;;20.59;56.09;100725.89;1734878;82;21199;-80
2022/07/19 04:51:02;;;;;;;2.85;1.10;;;;;;;20.63;56.24;100737.39;1735267;81;21235;-80
2022/07/19 04:54:07;;;;;;;1.25;1.00;;;;;;;20.68;55.57;100733.38;1736183;82;21557;-81
2022/07/19 04:57:14;;;;;;;5.53;1.10;;;;;;;20.71;55.20;100736.25;1736168;82;21724;-81
2022/07/19 05:00:19;;;;;;;3.02;1.10;;;;;;;20.79;55.07;100740.08;1735818;81;21195;-81
2022/07/19 05:03:25;;;;;;;4.85;1.30;;;;;;;20.92;54.82;100734.34;1736172;82;21184;-80
2022/07/19 05:06:31;;;;;;;2.62;1.10;;;;;;;21.04;54.37;100742.77;1734895;81;21251;-79
2022/07/19 05:09:37;;;;;;;3.75;1.42;;;;;;;21.09;54.39;100740.12;1736187;81;21179;-80
2022/07/19 05:12:43;;;;;;;1.60;1.20;;;;;;;21.12;54.34;100736.31;1736199;82;21783;-81
2022/07/19 05:15:49;;;;;;;1.55;0.98;;;;;;;21.19;54.12;100739.02;1735377;81;21243;-80
2022/07/19 05:18:56;;;;;;;2.47;1.05;;;;;;;21.25;53.26;100737.22;1736181;82;21164;-80
2022/07/19 05:22:03;;;;;;;2.83;1.27;;;;;;;21.30;53.28;100735.95;1735978;82;21204;-80
2022/07/19 05:25:09;;;;;;;2.92;0.93;;;;;;;21.37;53.24;100733.42;1735760;81;21238;-80
2022/07/19 05:28:16;;;;;;;2.42;1.15;;;;;;;21.46;52.71;100732.55;1736241;82;21148;-80
2022/07/19 05:31:22;;;;;;;4.03;1.40;;;;;;;21.50;52.68;100732.38;1735078;81;21258;-79
2022/07/19 05:34:28;;;;;;;1.90;1.17;;;;;;;21.55;53.31;100731.13;1736150;81;21235;-80
2022/07/19 05:37:34;;;;;;;1.70;1.00;;;;;;;21.66;52.50;100728.05;1735729;82;21215;-79
2022/07/19 05:40:40;;;;;;;3.37;1.07;;;;;;;21.77;51.98;100727.75;1734329;81;21199;-81
2022/07/19 05:43:47;;;;;;;1.72;1.02;;;;;;;21.82;50.91;100726.48;1735653;82;21172;-81
2022/07/19 05:46:56;;;;;;;2.65;1.30;;;;;;;21.90;51.53;100724.75;1737609;81;21210;-82
2022/07/19 05:50:01;;;;;;;1.85;0.88;;;;;;;22.01;51.08;100714.70;1738597;82;21199;-82
2022/07/19 05:53:08;;;;;;;1.47;0.70;;;;;;;22.09;51.02;100717.12;1738326;82;21184;-80
2022/07/19 05:56:14;;;;;;;2.77;1.30;;;;;;;22.19;50.14;100718.23;1728704;82;21846;-81
2022/07/19 05:59:22;;;;;;;2.05;1.05;;;;;;;22.32;49.43;100720.48;1725664;83;21239;-81
2022/07/19 06:02:28;;;;;;;5.10;1.22;;;;;;;22.35;49.86;100719.45;1707129;84;21189;-81
2022/07/19 06:05:34;;;;;;;4.55;0.90;;;;;;;22.44;49.17;100713.81;1707063;82;21797;-81
2022/07/19 06:08:41;;;;;;;0.60;0.60;;;;;;;22.51;48.28;100715.60;1707793;84;21189;-81
2022/07/19 06:11:51;;;;;;;0.70;0.60;;;;;;;22.52;46.89;100714.50;1708635;82;21223;-81
2022/07/19 06:14:50;;;;;;;4.90;0.80;;;;;;;22.52;46.88;100722.87;1728424;83;21214;-81
2022/07/19 06:17:56;;;;;;;0.80;0.60;;;;;;;22.52;46.65;100719.53;1728321;83;21313;-80
2022/07/19 06:21:02;;;;;;;5.50;0.93;;;;;;;22.55;46.74;100723.78;1727395;83;21234;-81
2022/07/19 06:24:08;;;;;;;1.45;0.55;;;;;;;22.64;47.00;100720.36;1727264;83;21190;-80
2022/07/19 06:27:13;;;;;;;0.60;0.50;;;;;;;22.68;45.77;100718.78;1727229;83;21305;-80
2022/07/19 06:30:20;;;;;;;1.40;0.70;;;;;;;22.77;45.77;100725.34;1728086;83;21222;-80
2022/07/19 06:33:28;;;;;;;2.47;0.80;;;;;;;22.83;45.50;100717.41;1728467;83;21183;-81
2022/07/19 06:36:33;;;;;;;4.03;0.68;;;;;;;22.81;45.38;100712.05;1727389;83;21238;-81
2022/07/19 06:39:39;;;;;;;1.37;0.70;;;;;;;22.94;43.56;100710.96;1727361;83;21717;-80
2022/07/19 06:42:45;;;;;;;0.62;0.60;;;;;;;23.12;43.23;100704.34;1727404;83;21467;-80
2022/07/19 06:45:52;;;;;;;3.95;0.60;;;;;;;23.29;42.91;100708.55;1730023;81;21194;-81
2022/07/19 06:48:57;;;;;;;4.22;0.50;;;;;;;23.41;42.61;100703.77;1756147;81;21224;-80
2022/07/19 06:52:04;;;;;;;1.02;0.53;;;;;;;23.53;41.70;100712.92;1756056;81;21180;-81
2022/07/19 06:55:10;;;;;;;4.75;0.60;;;;;;;23.61;41.10;100702.71;1754462;81;21203;-81
2022/07/19 06:58:16;;;;;;;2.00;0.55;;;;;;;23.62;40.25;100698.84;1756150;81;21753;-81
2022/07/19 07:01:21;;;;;;;1.75;0.40;;;;;;;23.61;40.06;100704.11;1755109;81;21749;-81
2022/07/19 07:04:26;;;;;;;3.98;0.60;;;;;;;23.60;40.00;100701.02;1751296;81;21164;-80
2022/07/19 07:07:34;;;;;;;1.20;0.40;;;;;;;23.62;39.47;100698.84;1755758;81;22329;-81
2022/07/19 07:10:40;;;;;;;1.07;0.57;;;;;;;23.68;39.17;100703.44;1735627;80;21196;-80
2022/07/19 07:13:46;;;;;;;3.10;0.65;;;;;;;23.74;39.33;100699.33;1701119;83;21192;-79
2022/07/19 07:16:53;;;;;;;0.57;0.47;;;;;;;23.77;39.24;100703.02;1702957;84;21177;-81
2022/07/19 07:19:58;;;;;;;3.75;0.60;;;;;;;23.79;38.89;100702.20;1702927;83;21208;-81
2022/07/19 07:23:03;;;;;;;1.80;0.50;;;;;;;23.92;38.93;100713.05;1701428;84;21227;-81
2022/07/19 07:26:09;;;;;;;9.98;0.50;;;;;;;23.97;38.53;100708.93;1723497;83;21236;-81
2022/07/19 07:29:15;;;;;;;1.27;0.57;;;;;;;24.01;38.50;100713.46;1732581;83;21173;-79
2022/07/19 07:32:22;;;;;;;0.68;0.60;;;;;;;24.05;38.32;100712.70;1732772;83;21180;-80
2022/07/19 07:35:27;;;;;;;3.42;0.53;;;;;;;24.06;37.74;100693.42;1732225;81;21207;-81
2022/07/19 07:38:33;;;;;;;1.12;0.60;;;;;;;24.10;37.25;100711.93;1732591;83;21157;-79
2022/07/19 07:41:41;;;;;;;1.82;0.60;;;;;;;24.16;37.20;100703.36;1732073;81;21200;-81
2022/07/19 07:44:48;;;;;;;0.70;0.50;;;;;;;24.15;38.20;100700.27;1733891;81;21743;-79
2022/07/19 07:47:53;;;;;;;6.92;0.70;;;;;;;24.11;38.57;100695.45;1733123;81;21211;-79
2022/07/19 07:50:58;;;;;;;6.08;0.62;;;;;;;24.13;37.88;100699.66;1735382;81;21744;-80
2022/07/19 07:54:07;;;;;;;1.07;0.45;;;;;;;24.25;37.95;100697.33;1734980;82;21196;-80
2022/07/19 07:57:13;;;;;;;1.00;0.50;;;;;;;24.38;37.06;100700.64;1734807;82;21172;-81
2022/07/19 08:00:21;;;;;;;2.52;0.55;;;;;;;24.46;37.06;100697.38;1736253;81;21779;-82
2022/07/19 08:03:25;;;;;;;0.55;0.30;;;;;;;24.56;37.31;100691.09;1736556;82;21188;-81
2022/07/19 08:06:31;;;;;;;0.80;0.47;;;;;;;24.64;37.29;100698.17;1736306;81;21208;-81
2022/07/19 08:09:36;;;;;;;0.93;0.50;;;;;;;24.68;34.49;100704.38;1735974;81;21697;-81
2022/07/19 08:12:36;;;;;;;0.85;0.50;;;;;;;24.70;34.10;100700.78;1736355;82;21232;-81
2022/07/19 08:15:43;;;;;;;0.85;0.40;;;;;;;24.68;33.25;100700.19;1735599;81;21199;-79
2022/07/19 08:18:49;;;;;;;1.20;0.40;;;;;;;24.72;33.97;100695.77;1735266;82;21161;-80
2022/07/19 08:21:49;;;;;;;4.22;0.40;;;;;;;24.79;33.64;100689.95;1736250;82;21248;-81
2022/07/19 08:24:42;;;;;;;3.10;0.50;;;;;;;24.83;34.93;100691.69;1736113;81;21220;-80
2022/07/19 08:27:48;;;;;;;4.90;0.53;;;;;;;24.91;35.16;100691.23;1734839;82;21208;-79
2022/07/19 08:30:55;;;;;;;1.85;0.60;;;;;;;24.94;34.17;100689.32;1735350;81;21164;-79
2022/07/19 08:34:03;;;;;;;1.50;0.62;;;;;;;24.98;33.58;100676.47;1735028;82;21149;-81
2022/07/19 08:37:10;;;;;;;0.70;0.40;;;;;;;25.04;34.09;100681.03;1736276;82;21282;-80
2022/07/19 08:40:16;;;;;;;2.65;0.35;;;;;;;25.01;34.10;100675.95;1736076;81;21232;-79
2022/07/19 08:43:22;;;;;;;0.75;0.45;;;;;;;24.89;34.76;100678.91;1736159;82;21168;-80
2022/07/19 08:46:28;;;;;;;1.10;0.50;;;;;;;24.74;34.40;100675.36;1735186;81;21206;-80
2022/07/19 08:49:35;;;;;;;4.97;0.40;;;;;;;24.64;34.47;100673.84;1732664;81;21193;-80
2022/07/19 08:52:42;;;;;;;2.58;0.57;;;;;;;24.64;34.80;100667.41;1733399;83;21483;-80
2022/07/19 08:55:49;;;;;;;1.47;0.53;;;;;;;24.74;34.97;100669.77;1732829;81;21173;-80
2022/07/19 08:58:56;;;;;;;1.95;0.60;;;;;;;24.86;34.99;100664.59;1732419;83;21247;-80
2022/07/19 09:02:02;;;;;;;3.00;0.70;;;;;;;24.99;34.84;100655.80;1733353;83;21208;-80
2022/07/19 09:05:09;;;;;;;1.70;0.62;;;;;;;25.18;35.04;100665.55;1733147;81;21203;-81
2022/07/19 09:08:25;;;;;;;1.50;0.70;;;;;;;25.18;32.66;100672.54;1732969;83;21753;-80
2022/07/19 09:11:50;;;;;;;4.10;0.60;;;;;;;24.90;31.97;100666.61;1732646;81;21204;-80
2022/07/19 09:15:01;;;;;;;1.75;0.60;;;;;;;24.57;32.72;100659.78;1732965;81;21219;-81
2022/07/19 09:18:25;;;;;;;;;;;;;;;24.51;33.08;100653.25;1735750;83;21242;-80
2022/07/19 09:21:30;;;;;;;5.87;0.80;;;;;;;24.64;32.94;100654.82;1720241;81;20612;-80
2022/07/19 09:24:42;;;;;;;3.50;0.70;;;;;;;24.84;32.65;100652.81;1731908;81;21172;-80
2022/07/19 09:27:48;;;;;;;2.55;0.53;;;;;;;25.01;33.30;100651.33;1731886;83;21200;-81
2022/07/19 09:30:55;;;;;;;3.62;0.72;;;;;;;25.16;32.44;100654.30;1710857;83;21733;-81
2022/07/19 09:34:03;;;;;;;;;;;;;;;25.24;32.32;100663.07;1734936;83;21161;-79
2022/07/19 09:37:29;;;;;;;3.90;0.78;;;;;;;25.15;31.98;100649.83;1713136;83;20705;-80
2022/07/19 09:40:28;;;;;;;2.22;0.70;;;;;;;25.02;32.01;100639.86;1699742;83;21267;-80
2022/07/19 09:43:34;;;;;;;4.72;0.90;;;;;;;24.89;32.09;100645.87;1699589;84;21725;-81
2022/07/19 09:46:50;;;;;;;6.17;1.10;;;;;;;24.84;32.40;100643.89;1698338;83;21216;-80
2022/07/19 09:49:55;;;;;;;2.42;1.10;;;;;;;24.85;32.30;100632.98;1698956;83;21204;-80
2022/07/19 09:53:01;;;;;;;3.60;1.12;;;;;;;24.85;32.96;100629.34;1699431;83;21176;-81
2022/07/19 09:56:07;;;;;;;2.55;1.35;;;;;;;24.98;32.77;100637.30;1698525;83;21313;-80
2022/07/19 09:59:13;;;;;;;2.50;1.00;;;;;;;25.14;32.14;100612.59;1699205;84;21185;-80
2022/07/19 10:02:18;;;;;;;6.00;1.82;;;;;;;25.40;32.88;100628.21;1699728;84;21202;-80
2022/07/19 10:05:23;;;;;;;5.42;1.25;;;;;;;25.63;32.62;100612.44;1703424;83;21232;-80
2022/07/19 10:08:30;;;;;;;9.78;1.25;;;;;;;25.78;31.19;100622.09;1698458;84;21184;-79
2022/07/19 10:11:37;;;;;;;2.75;1.32;;;;;;;25.70;30.88;100617.27;1698564;83;21785;-81
2022/07/19 10:14:43;;;;;;;3.92;1.00;;;;;;;25.56;31.51;100616.04;1699470;83;21278;-81
2022/07/19 10:18:19;;;;;;;6.90;1.30;;;;;;;25.52;32.04;100607.88;1699557;84;21188;-80
2022/07/19 10:21:24;;;;;;;4.62;1.60;;;;;;;25.58;32.53;100605.95;1698568;83;21200;-81
2022/07/19 10:24:51;;;;;;;5.20;0.98;;;;;;;25.51;32.48;100609.00;1699526;83;21753;-81
2022/07/19 10:27:59;;;;;;;6.42;1.02;;;;;;;25.31;31.41;100609.66;1699129;84;21197;-80
2022/07/19 10:31:05;;;;;;;1.65;0.80;;;;;;;25.18;31.80;100595.56;1698639;83;21575;-81
2022/07/19 10:34:17;;;;;;;1.80;0.90;;;;;;;25.20;31.22;100596.13;1699529;84;21169;-80
2022/07/19 10:37:26;;;;;;;4.50;1.00;;;;;;;25.33;31.92;100601.01;1742384;81;21172;-81
2022/07/19 10:40:48;;;;;;;5.30;0.82;;;;;;;25.48;31.19;100588.52;1760935;80;21570;-81
2022/07/19 10:44:16;;;;;;;1.55;0.68;;;;;;;25.53;30.61;100594.72;1758060;81;21243;-80
2022/07/19 10:47:23;;;;;;;1.42;0.88;;;;;;;25.56;30.50;100581.03;1760836;81;21188;-81
2022/07/19 10:50:29;;;;;;;1.02;0.50;;;;;;;25.76;30.03;100585.95;1760018;80;21207;-79
2022/07/19 10:53:48;;;;;;;1.75;0.50;;;;;;;25.94;29.07;100577.66;1762222;81;22079;-80
2022/07/19 10:56:45;;;;;;;3.15;0.50;;;;;;;26.10;28.59;100583.61;1762252;81;21187;-81
2022/07/19 10:59:54;;;;;;;7.85;0.70;;;;;;;26.27;28.44;100590.44;1761742;80;21752;-81
2022/07/19 11:03:30;;;;;;;1.90;0.60;;;;;;;26.36;28.18;100589.36;1762144;81;21176;-80
2022/07/19 11:06:36;;;;;;;2.15;0.50;;;;;;;26.37;28.76;100577.02;1760829;80;21176;-80
2022/07/19 11:09:58;;;;;;;1.90;0.37;;;;;;;26.35;28.52;100578.70;1762389;80;21180;-80
2022/07/19 11:13:06;;;;;;;2.35;0.50;;;;;;;26.36;29.25;100578.14;1761937;81;22172;-80
2022/07/19 11:16:11;;;;;;;3.62;0.80;;;;;;;26.49;28.79;100574.30;1762304;80;21235;-81
2022/07/19 11:19:18;;;;;;;2.17;0.60;;;;;;;26.55;27.57;100579.36;1760896;81;21160;-80
2022/07/19 11:22:24;;;;;;;0.90;0.50;;;;;;;26.51;27.67;100575.41;1741567;81;21733;-80
2022/07/19 11:25:42;;;;;;;1.12;0.40;;;;;;;26.42;27.71;100579.27;1732226;81;21176;-80
2022/07/19 11:28:48;;;;;;;2.70;0.55;;;;;;;26.41;28.10;100575.34;1732144;83;21200;-80
2022/07/19 11:31:56;;;;;;;1.60;0.40;;;;;;;26.43;28.49;100577.34;1732263;83;21169;-81
2022/07/19 11:35:06;;;;;;;1.42;0.50;;;;;;;26.45;27.70;100570.91;1730835;81;21239;-80
2022/07/19 11:38:12;;;;;;;0.95;0.50;;;;;;;26.46;27.07;100576.80;1730774;83;21161;-80
2022/07/19 11:41:26;;;;;;;0.72;0.50;;;;;;;26.44;27.49;100567.27;1730834;81;21208;-81
2022/07/19 11:44:32;;;;;;;2.10;0.53;;;;;;;26.54;27.97;100558.58;1732134;81;21793;-80
2022/07/19 11:47:40;;;;;;;2.20;0.70;;;;;;;26.63;28.00;100557.78;1732349;83;21701;-81
2022/07/19 11:50:45;;;;;;;0.70;0.50;;;;;;;26.76;27.82;100563.40;1731246;81;21733;-79
2022/07/19 11:53:53;;;;;;;2.95;0.60;;;;;;;26.80;26.58;100558.08;1730512;83;21247;-79
2022/07/19 11:57:00;;;;;;;0.98;0.47;;;;;;;26.68;27.83;100559.20;1692694;83;21255;-80
2022/07/19 12:00:06;;;;;;;0.90;0.50;;;;;;;26.63;27.90;100554.98;1729741;81;21463;-80
2022/07/19 12:03:13;;;;;;;2.42;0.50;;;;;;;26.72;28.03;100559.46;1730122;83;21164;-80
2022/07/19 12:06:20;;;;;;;1.05;0.50;;;;;;;26.71;28.14;100553.02;1728872;81;21251;-81
2022/07/19 12:09:34;;;;;;;2.00;0.72;;;;;;;26.68;28.69;100554.98;1729992;81;21176;-81
2022/07/19 12:12:39;;;;;;;2.25;0.70;;;;;;;26.71;27.56;100555.81;1710945;83;21559;-81
2022/07/19 12:16:01;;;;;;;1.45;0.60;;;;;;;26.68;28.27;100539.56;1709280;83;21216;-80
2022/07/19 12:19:06;;;;;;;3.15;0.60;;;;;;;26.64;27.69;100553.85;1730161;83;21784;-81
2022/07/19 12:22:11;;;;;;;2.50;0.50;;;;;;;26.55;28.22;100545.70;1711676;83;21177;-80
2022/07/19 12:25:16;;;;;;;0.75;0.57;;;;;;;26.48;28.30;100543.70;1699325;83;21794;-80
2022/07/19 12:28:22;;;;;;;2.92;0.60;;;;;;;26.41;29.05;100535.53;1699863;84;21637;-81
2022/07/19 12:31:28;;;;;;;0.65;0.55;;;;;;;26.42;29.42;100534.41;1698656;83;21658;-81
2022/07/19 12:34:34;;;;;;;1.40;0.55;;;;;;;26.40;28.84;100538.62;1699748;83;21181;-81
2022/07/19 12:37:46;;;;;;;2.00;0.68;;;;;;;26.35;29.35;100537.17;1699308;83;21217;-81
2022/07/19 12:40:52;;;;;;;2.40;0.98;;;;;;;26.33;28.98;100536.62;1699363;83;21805;-80
2022/07/19 12:43:59;;;;;;;0.98;0.47;;;;;;;26.28;29.13;100522.02;1719113;82;21200;-79
2022/07/19 12:47:09;;;;;;;1.22;0.60;;;;;;;26.14;29.00;100520.29;1732184;82;21156;-79
2022/07/19 12:50:18;;;;;;;1.02;0.60;;;;;;;26.04;28.99;100513.25;1731930;82;21586;-79
2022/07/19 12:53:24;;;;;;;0.60;0.50;;;;;;;25.99;28.94;100518.27;1717392;83;21215;-80
2022/07/19 12:56:29;;;;;;;1.75;0.53;;;;;;;25.95;28.19;100516.29;1732544;82;21720;-80
2022/07/19 12:59:41;;;;;;;1.70;0.53;;;;;;;25.93;28.29;100511.53;1744577;81;21604;-80
2022/07/19 13:02:33;;;;;;;4.22;0.50;;;;;;;25.90;28.52;100509.27;1737571;82;21694;-81
2022/07/19 13:05:40;;;;;;;3.10;0.57;;;;;;;25.90;28.84;100503.09;1742218;81;21241;-80
2022/07/19 13:08:46;;;;;;;2.22;0.62;;;;;;;25.85;28.95;100510.64;1745144;82;21183;-80
2022/07/19 13:11:46;;;;;;;3.95;0.65;;;;;;;25.82;28.76;100506.41;1743706;82;21806;-80
2022/07/19 13:14:44;;;;;;;2.25;0.60;;;;;;;25.83;28.78;100504.45;1744838;81;21218;-80
2022/07/19 13:17:49;;;;;;;1.10;0.50;;;;;;;25.85;29.35;100503.64;1725104;82;21171;-80
2022/07/19 13:20:56;;;;;;;0.68;0.50;;;;;;;25.87;29.47;100499.43;1740340;81;21249;-81
2022/07/19 13:24:01;;;;;;;2.77;0.70;;;;;;;25.87;29.54;100505.59;1698249;84;21793;-80
2022/07/19 13:27:10;;;;;;;0.68;0.50;;;;;;;25.84;29.56;100497.20;1698431;84;21196;-80
2022/07/19 13:30:16;;;;;;;0.95;0.62;;;;;;;25.87;29.47;100498.03;1699548;83;21576;-81
2022/07/19 13:33:22;;;;;;;1.95;0.50;;;;;;;25.89;30.02;100493.58;1698296;84;21802;-80
2022/07/19 13:36:28;;;;;;;4.62;0.60;;;;;;;25.96;29.98;100496.95;1698514;83;21248;-81
2022/07/19 13:39:32;;;;;;;1.07;0.60;;;;;;;25.99;29.69;100493.05;1699878;83;21212;-81
2022/07/19 13:42:38;;;;;;;3.00;0.57;;;;;;;25.98;30.21;100494.73;1698748;84;21224;-80
2022/07/19 13:45:38;;;;;;;1.22;0.60;;;;;;;25.97;28.85;100493.02;1700547;83;21173;-80
2022/07/19 13:48:46;;;;;;;3.25;0.60;;;;;;;25.92;29.31;100490.20;1700984;84;21161;-80
2022/07/19 13:51:53;;;;;;;2.52;0.40;;;;;;;25.89;28.81;100492.17;1700787;84;21243;-80
2022/07/19 13:54:59;;;;;;;7.47;0.65;;;;;;;25.82;28.65;100493.80;1685897;83;21184;-80
2022/07/19 13:58:04;;;;;;;1.25;0.70;;;;;;;25.74;28.68;100501.32;1700823;84;21224;-81
2022/07/19 14:01:10;;;;;;;1.45;0.50;;;;;;;25.67;28.96;100487.55;1700450;83;21236;-80
2022/07/19 14:04:17;;;;;;;4.45;0.80;;;;;;;25.63;29.30;100479.39;1700941;84;21180;-81
2022/07/19 14:07:22;;;;;;;1.32;0.70;;;;;;;25.60;28.99;100491.16;1700820;84;21646;-81
2022/07/19 14:10:28;;;;;;;2.83;0.50;;;;;;;25.48;28.51;100492.75;1700649;83;21235;-81
2022/07/19 14:13:33;;;;;;;0.47;0.47;;;;;;;25.38;28.60;100489.89;1699934;84;21765;-80
2022/07/19 14:16:40;;;;;;;1.87;0.80;;;;;;;25.28;28.91;100483.40;1686383;84;21189;-81
2022/07/19 14:19:48;;;;;;;1.22;0.53;;;;;;;25.23;28.94;100478.61;1700757;83;21220;-81
2022/07/19 14:22:55;;;;;;;3.37;0.78;;;;;;;25.18;29.71;100484.17;1700365;84;21168;-80
2022/07/19 14:26:01;;;;;;;6.50;0.50;;;;;;;25.11;29.62;100472.34;1699992;83;21196;-80
2022/07/19 14:29:06;;;;;;;3.47;0.55;;;;;;;25.05;30.42;100475.64;1702340;83;21724;-80